createdAt,value
2022-10-20T00:01:22.251Z,8.42
2022-10-20T00:03:51.480Z,8.74
2022-10-20T00:06:22.269Z,8.81
2022-10-20T00:08:51.053Z,8.72
2022-10-20T00:11:21.118Z,8.73
2022-10-20T00:13:52.977Z,8.89
2022-10-20T00:16:22.837Z,9.06
2022-10-20T00:18:51.690Z,9.15
2022-10-20T00:21:22.052Z,8.78
2022-10-20T00:23:50.901Z,8.88
2022-10-20T00:26:22.264Z,9.07
2022-10-20T00:28:53.182Z,9.03
2022-10-20T00:31:23.437Z,8.99
2022-10-20T00:33:52.112Z,8.86
2022-10-20T00:36:23.497Z,8.64
2022-10-20T00:38:53.140Z,8.47
2022-10-20T00:41:22.751Z,8.70
2022-10-20T00:43:55.008Z,8.55
2022-10-20T00:46:26.130Z,8.71
2022-10-20T00:49:02.905Z,8.51
2022-10-20T00:51:34.859Z,8.42
2022-10-20T00:54:09.173Z,8.33
2022-10-20T00:56:41.311Z,8.43
2022-10-20T00:59:15.075Z,8.22
2022-10-20T01:01:45.006Z,8.26
2022-10-20T01:04:13.571Z,8.16
2022-10-20T01:06:41.963Z,8.44
2022-10-20T01:09:12.985Z,8.53
2022-10-20T01:11:45.266Z,8.75
2022-10-20T01:14:27.851Z,8.36
2022-10-20T01:17:05.580Z,8.12
2022-10-20T01:19:59.862Z,8.43
2022-10-20T01:22:47.320Z,8.47
2022-10-20T01:25:24.008Z,8.67
2022-10-20T01:27:56.997Z,8.78
2022-10-20T01:30:25.528Z,8.80
2022-10-20T01:33:11.079Z,8.80
2022-10-20T01:35:46.757Z,8.65
2022-10-20T01:38:21.659Z,8.89
2022-10-20T01:40:54.131Z,8.59
2022-10-20T01:43:26.498Z,8.63
2022-10-20T01:45:56.986Z,8.75
2022-10-20T01:48:29.511Z,8.64
2022-10-20T01:51:01.755Z,8.79
2022-10-20T01:53:30.304Z,8.54
2022-10-20T01:56:02.104Z,8.47
2022-10-20T01:59:02.945Z,8.59
2022-10-20T02:01:44.951Z,9.07
2022-10-20T02:04:14.159Z,8.28
2022-10-20T02:06:46.621Z,8.05
2022-10-20T02:09:19.252Z,8.09
2022-10-20T02:11:54.447Z,8.14
2022-10-20T02:14:24.996Z,8.16
2022-10-20T02:16:58.218Z,8.26
2022-10-20T02:19:30.982Z,8.30
2022-10-20T02:22:01.993Z,8.42
2022-10-20T02:24:39.890Z,8.23
2022-10-20T02:27:12.240Z,8.38
2022-10-20T02:29:50.591Z,8.65
2022-10-20T02:32:20.498Z,8.48
2022-10-20T02:34:49.292Z,8.33
2022-10-20T02:37:17.873Z,8.24
2022-10-20T02:39:48.819Z,7.93
2022-10-20T02:42:18.039Z,7.84
2022-10-20T02:44:48.082Z,7.76
2022-10-20T02:47:16.978Z,7.93
2022-10-20T02:49:45.084Z,7.75
2022-10-20T02:52:13.638Z,7.75
2022-10-20T02:54:44.561Z,7.44
2022-10-20T02:57:12.959Z,7.77
2022-10-20T02:59:41.320Z,7.66
2022-10-20T03:02:11.918Z,7.83
2022-10-20T03:04:40.454Z,7.71
2022-10-20T03:07:08.865Z,7.66
2022-10-20T03:09:40.222Z,7.12
2022-10-20T03:12:09.762Z,6.97
2022-10-20T03:14:42.932Z,7.19
2022-10-20T03:17:12.865Z,7.82
2022-10-20T03:19:41.531Z,7.53
2022-10-20T03:26:12.587Z,7.60
2022-10-20T03:28:41.647Z,7.10
2022-10-20T03:31:10.651Z,7.08
2022-10-20T03:33:40.586Z,6.94
2022-10-20T03:36:10.083Z,7.44
2022-10-20T03:38:38.730Z,7.80
2022-10-20T03:41:07.253Z,7.11
2022-10-20T03:43:35.856Z,7.33
2022-10-20T03:46:05.028Z,7.22
2022-10-20T03:48:33.797Z,6.96
2022-10-20T03:51:04.531Z,7.42
2022-10-20T03:53:33.991Z,7.55
2022-10-20T03:56:07.216Z,7.07
2022-10-20T03:58:35.969Z,7.29
2022-10-20T04:01:06.508Z,7.08
2022-10-20T04:03:35.088Z,7.23
2022-10-20T04:06:05.070Z,6.90
2022-10-20T04:08:35.848Z,7.05
2022-10-20T04:11:07.154Z,7.46
2022-10-20T04:13:35.633Z,7.58
2022-10-20T04:16:04.073Z,7.71
2022-10-20T04:18:32.561Z,7.04
2022-10-20T04:21:01.209Z,7.24
2022-10-20T04:23:32.536Z,7.63
2022-10-20T04:26:00.987Z,7.08
2022-10-20T04:28:32.390Z,7.07
2022-10-20T04:31:01.977Z,6.98
2022-10-20T04:33:30.517Z,7.23
2022-10-20T04:36:00.005Z,7.32
2022-10-20T04:38:30.891Z,7.16
2022-10-20T04:41:01.906Z,7.10
2022-10-20T04:43:33.259Z,7.24
2022-10-20T04:46:05.451Z,7.12
2022-10-20T04:48:37.242Z,7.04
2022-10-20T04:51:08.640Z,7.30
2022-10-20T04:53:39.121Z,7.10
2022-10-20T04:56:09.737Z,7.44
2022-10-20T04:58:38.517Z,7.15
2022-10-20T05:01:09.113Z,6.76
2022-10-20T05:03:38.770Z,6.56
2022-10-20T05:06:12.669Z,7.06
2022-10-20T05:08:43.640Z,6.98
2022-10-20T05:11:12.690Z,7.02
2022-10-20T05:13:41.131Z,7.46
2022-10-20T05:16:10.504Z,7.31
2022-10-20T05:18:39.508Z,7.16
2022-10-20T05:21:09.987Z,7.11
2022-10-20T05:23:39.456Z,7.05
2022-10-20T05:26:12.778Z,6.94
2022-10-20T05:28:44.024Z,6.79
2022-10-20T05:31:12.848Z,6.71
2022-10-20T05:33:45.125Z,7.25
2022-10-20T05:36:19.320Z,7.22
2022-10-20T05:38:54.796Z,7.04
2022-10-20T05:41:26.935Z,7.46
2022-10-20T05:43:57.972Z,6.88
2022-10-20T05:46:27.487Z,7.53
2022-10-20T05:48:58.162Z,7.22
2022-10-20T05:51:28.918Z,7.14
2022-10-20T05:53:58.481Z,7.21
2022-10-20T05:56:30.369Z,7.69
2022-10-20T05:58:59.781Z,7.33
2022-10-20T06:01:39.350Z,7.80
2022-10-20T06:04:09.391Z,7.91
2022-10-20T06:06:37.875Z,8.09
2022-10-20T06:09:08.521Z,8.01
2022-10-20T06:11:39.871Z,7.83
2022-10-20T06:14:10.482Z,7.63
2022-10-20T06:16:39.712Z,7.99
2022-10-20T06:19:08.222Z,7.62
2022-10-20T06:21:38.770Z,7.51
2022-10-20T06:24:08.468Z,7.87
2022-10-20T06:26:42.586Z,8.21
2022-10-20T06:29:14.204Z,8.48
2022-10-20T06:31:44.241Z,8.26
2022-10-20T06:34:15.825Z,8.46
2022-10-20T06:36:46.926Z,7.80
2022-10-20T06:39:18.515Z,7.56
2022-10-20T06:41:50.770Z,7.99
2022-10-20T06:44:23.939Z,8.19
2022-10-20T06:46:53.541Z,8.90
2022-10-20T06:49:22.325Z,8.34
2022-10-20T06:51:50.922Z,8.09
2022-10-20T06:54:20.319Z,8.39
2022-10-20T06:56:50.271Z,8.54
2022-10-20T06:59:18.821Z,8.11
2022-10-20T07:01:47.237Z,8.32
2022-10-20T07:04:16.760Z,8.14
2022-10-20T07:06:47.332Z,7.84
2022-10-20T07:09:17.924Z,8.21
2022-10-20T07:11:46.706Z,7.47
2022-10-20T07:14:16.480Z,7.34
2022-10-20T07:16:44.985Z,7.53
2022-10-20T07:19:13.412Z,7.74
2022-10-20T07:21:45.665Z,7.54
2022-10-20T07:24:15.733Z,8.03
2022-10-20T07:26:44.339Z,7.68
2022-10-20T07:29:14.748Z,7.93
2022-10-20T07:31:46.736Z,8.95
2022-10-20T07:34:25.857Z,9.25
2022-10-20T07:36:56.509Z,8.48
2022-10-20T07:39:25.257Z,8.35
2022-10-20T07:41:53.884Z,8.11
2022-10-20T07:44:22.523Z,7.97
2022-10-20T07:46:52.410Z,7.65
2022-10-20T07:52:09.944Z,7.80
2022-10-20T07:54:38.468Z,8.24
2022-10-20T07:57:07.006Z,9.35
2022-10-20T07:59:35.417Z,9.37
2022-10-20T08:02:05.487Z,8.77
2022-10-20T08:04:34.497Z,8.21
2022-10-20T08:07:03.015Z,8.07
2022-10-20T08:09:33.679Z,7.68
2022-10-20T08:12:02.650Z,7.82
2022-10-20T08:14:33.719Z,7.91
2022-10-20T08:17:06.017Z,7.76
2022-10-20T08:19:40.999Z,7.67
2022-10-20T08:22:09.566Z,7.88
2022-10-20T08:24:38.249Z,7.41
2022-10-20T08:27:06.674Z,7.88
2022-10-20T08:29:35.286Z,7.54
2022-10-20T08:32:03.889Z,7.56
2022-10-20T08:34:32.569Z,7.94
2022-10-20T08:37:02.552Z,7.82
2022-10-20T08:39:31.186Z,8.01
2022-10-20T08:42:09.567Z,8.97
2022-10-20T08:44:41.507Z,8.21
2022-10-20T08:47:22.848Z,8.01
2022-10-20T08:49:51.525Z,8.09
2022-10-20T08:52:24.162Z,8.21
2022-10-20T08:54:55.364Z,8.09
2022-10-20T08:57:26.536Z,8.23
2022-10-20T08:59:57.696Z,7.85
2022-10-20T09:02:27.369Z,8.41
2022-10-20T09:04:59.983Z,8.53
2022-10-20T09:07:34.403Z,8.32
2022-10-20T09:10:08.981Z,7.83
2022-10-20T09:12:41.530Z,8.29
2022-10-20T09:15:12.769Z,8.78
2022-10-20T09:17:43.385Z,8.23
2022-10-20T09:20:20.785Z,8.07
2022-10-20T09:22:56.250Z,7.98
2022-10-20T09:25:27.710Z,8.09
2022-10-20T09:27:57.542Z,7.65
2022-10-20T09:30:34.608Z,7.78
2022-10-20T09:33:22.359Z,7.36
2022-10-20T09:35:52.905Z,7.65
2022-10-20T09:38:29.619Z,7.47
2022-10-20T09:41:09.787Z,7.45
2022-10-20T09:43:42.013Z,7.20
2022-10-20T09:46:13.161Z,7.44
2022-10-20T09:48:48.016Z,7.87
2022-10-20T09:51:20.077Z,7.88
2022-10-20T09:53:56.630Z,7.64
2022-10-20T09:56:28.390Z,7.96
2022-10-20T09:58:58.552Z,8.48
2022-10-20T10:01:27.309Z,8.21
2022-10-20T10:04:00.097Z,8.29
2022-10-20T10:06:33.107Z,8.12
2022-10-20T10:09:03.800Z,8.62
2022-10-20T10:11:37.416Z,8.56
2022-10-20T10:14:07.199Z,8.82
2022-10-20T10:16:43.833Z,8.42
2022-10-20T10:19:18.740Z,8.49
2022-10-20T10:21:50.120Z,8.11
2022-10-20T10:24:35.546Z,8.91
2022-10-20T10:27:04.612Z,8.89
2022-10-20T10:29:36.300Z,8.48
2022-10-20T10:32:15.883Z,8.39
2022-10-20T10:35:11.200Z,8.63
2022-10-20T10:37:43.389Z,8.22
2022-10-20T10:40:20.016Z,8.77
2022-10-20T10:43:01.544Z,8.71
2022-10-20T10:45:45.878Z,9.17
2022-10-20T10:48:35.206Z,8.79
2022-10-20T10:51:10.376Z,8.65
2022-10-20T10:53:52.197Z,8.48
2022-10-20T10:56:30.960Z,8.63
2022-10-20T10:59:00.063Z,9.13
2022-10-20T11:01:46.292Z,8.87
2022-10-20T11:04:39.703Z,8.90
2022-10-20T11:07:12.823Z,8.13
2022-10-20T11:09:50.996Z,8.11
2022-10-20T11:12:41.057Z,7.89
2022-10-20T11:15:25.976Z,8.04
2022-10-20T11:18:00.484Z,8.15
2022-10-20T11:20:41.206Z,8.08
2022-10-20T11:26:14.310Z,7.45
2022-10-20T11:28:48.101Z,8.19
2022-10-20T11:31:24.368Z,8.19
2022-10-20T11:33:58.896Z,7.95
2022-10-20T11:36:34.087Z,8.31
2022-10-20T11:39:04.309Z,8.11
2022-10-20T11:41:39.555Z,8.32
2022-10-20T11:44:14.833Z,8.46
2022-10-20T11:46:49.021Z,8.34
2022-10-20T11:49:17.857Z,8.31
2022-10-20T11:51:55.145Z,8.90
2022-10-20T11:55:19.945Z,8.55
2022-10-20T11:58:09.923Z,8.58
2022-10-20T12:01:08.261Z,8.28
2022-10-20T12:04:05.524Z,8.35
2022-10-20T12:07:03.898Z,8.24
2022-10-20T12:09:59.358Z,7.84
2022-10-20T12:12:37.292Z,8.09
2022-10-20T12:15:21.548Z,7.65
2022-10-20T12:17:52.479Z,7.88
2022-10-20T12:21:03.070Z,8.06
2022-10-20T12:24:05.809Z,8.77
2022-10-20T12:27:18.377Z,8.85
2022-10-20T12:29:52.372Z,8.39
2022-10-20T12:32:38.384Z,8.56
2022-10-20T12:35:43.049Z,8.61
2022-10-20T12:38:22.794Z,8.69
2022-10-20T12:40:58.035Z,8.90
2022-10-20T12:43:51.173Z,8.86
2022-10-20T12:46:24.342Z,8.61
2022-10-20T12:49:00.016Z,9.09
2022-10-20T12:51:37.034Z,8.91
2022-10-20T12:54:19.169Z,8.50
2022-10-20T12:56:48.511Z,8.49
2022-10-20T12:59:40.333Z,8.53
2022-10-20T13:02:32.184Z,8.20
2022-10-20T13:05:03.374Z,8.34
2022-10-20T13:08:00.771Z,8.39
2022-10-20T13:10:39.604Z,8.21
2022-10-20T13:13:26.191Z,8.32
2022-10-20T13:15:56.117Z,8.29
2022-10-20T13:18:30.050Z,8.43
2022-10-20T13:21:02.972Z,8.12
2022-10-20T13:23:39.393Z,8.04
2022-10-20T13:26:18.036Z,7.63
2022-10-20T13:28:49.165Z,7.73
2022-10-20T13:31:23.837Z,7.90
2022-10-20T13:34:05.824Z,7.11
2022-10-20T13:36:51.871Z,7.28
2022-10-20T13:39:29.093Z,7.40
2022-10-20T13:42:08.675Z,7.40
2022-10-20T13:44:46.085Z,7.37
2022-10-20T13:47:41.620Z,7.20
2022-10-20T13:50:13.769Z,7.05
2022-10-20T13:52:46.231Z,7.22
2022-10-20T13:55:19.534Z,7.21
2022-10-20T13:57:55.438Z,6.94
2022-10-20T14:00:28.325Z,6.96
2022-10-20T14:02:59.916Z,6.87
2022-10-20T14:05:30.397Z,6.94
2022-10-20T14:08:04.679Z,7.04
2022-10-20T14:10:41.125Z,6.95
2022-10-20T14:13:15.553Z,6.82
2022-10-20T14:15:49.099Z,6.98
2022-10-20T14:18:26.505Z,7.06
2022-10-20T14:21:02.837Z,7.01
2022-10-20T14:23:36.320Z,6.91
2022-10-20T14:26:05.874Z,6.85
2022-10-20T14:28:37.853Z,6.83
2022-10-20T14:31:07.721Z,6.74
2022-10-20T14:33:42.159Z,6.49
2022-10-20T14:36:19.889Z,6.41
2022-10-20T14:38:50.545Z,6.49
2022-10-20T14:41:26.814Z,6.46
2022-10-20T14:44:04.974Z,6.54
2022-10-20T14:46:38.072Z,6.52
2022-10-20T14:49:15.794Z,6.45
2022-10-20T14:51:48.348Z,6.40
2022-10-20T14:54:32.502Z,6.36
2022-10-20T14:57:03.211Z,6.40
2022-10-20T14:59:36.309Z,6.35
2022-10-20T15:02:10.677Z,6.35
2022-10-20T15:04:40.161Z,6.37
2022-10-20T15:07:15.020Z,6.33
2022-10-20T15:09:45.684Z,6.36
2022-10-20T15:12:17.932Z,6.08
2022-10-20T15:14:53.306Z,6.07
2022-10-20T15:17:38.410Z,5.75
2022-10-20T15:20:33.085Z,5.71
2022-10-20T15:23:03.728Z,5.97
2022-10-20T15:25:37.329Z,6.09
2022-10-20T15:28:21.965Z,6.12
2022-10-20T15:30:52.072Z,6.18
2022-10-20T15:33:21.475Z,6.22
2022-10-20T15:35:50.895Z,5.93
2022-10-20T15:38:19.236Z,5.94
2022-10-20T15:40:48.271Z,5.92
2022-10-20T15:43:18.825Z,5.86
2022-10-20T15:45:50.417Z,5.56
2022-10-20T15:48:20.351Z,5.52
2022-10-20T15:50:48.993Z,5.47
2022-10-20T15:53:18.570Z,5.39
2022-10-20T15:55:47.352Z,5.60
2022-10-20T15:58:15.426Z,5.86
2022-10-20T16:00:43.995Z,6.00
2022-10-20T16:03:17.342Z,5.99
2022-10-20T16:05:47.866Z,5.95
2022-10-20T16:08:16.405Z,5.93
2022-10-20T16:10:44.864Z,5.80
2022-10-20T16:13:13.301Z,5.68
2022-10-20T16:15:41.660Z,6.21
2022-10-20T16:18:12.815Z,5.76
2022-10-20T16:20:41.454Z,5.78
2022-10-20T16:23:11.328Z,5.56
2022-10-20T16:25:40.945Z,5.52
2022-10-20T16:28:10.213Z,5.26
2022-10-20T16:30:38.779Z,5.81
2022-10-20T16:33:08.541Z,5.95
2022-10-20T16:35:42.663Z,5.93
2022-10-20T16:38:13.166Z,6.09
2022-10-20T16:40:41.835Z,6.03
2022-10-20T16:43:10.415Z,5.87
2022-10-20T16:45:41.077Z,5.98
2022-10-20T16:48:09.530Z,6.08
2022-10-20T16:50:42.095Z,5.89
2022-10-20T16:53:10.731Z,5.76
2022-10-20T16:55:43.698Z,5.30
2022-10-20T16:58:12.267Z,5.26
2022-10-20T17:00:40.770Z,5.47
2022-10-20T17:03:20.112Z,5.23
2022-10-20T17:05:56.655Z,5.36
2022-10-20T17:08:26.109Z,5.33
2022-10-20T17:11:01.123Z,5.21
2022-10-20T17:13:32.054Z,4.85
2022-10-20T17:16:08.141Z,4.55
2022-10-20T17:18:36.901Z,4.69
2022-10-20T17:21:05.431Z,4.73
2022-10-20T17:23:37.403Z,4.86
2022-10-20T17:26:12.704Z,4.72
2022-10-20T17:28:41.504Z,4.52
2022-10-20T17:31:11.540Z,5.42
2022-10-20T17:33:42.816Z,4.94
2022-10-20T17:36:12.905Z,5.10
2022-10-20T17:38:42.966Z,5.40
2022-10-20T17:41:15.162Z,5.52
2022-10-20T17:43:44.377Z,5.24
2022-10-20T17:46:15.257Z,5.14
2022-10-20T17:48:44.395Z,5.30
2022-10-20T17:51:15.349Z,5.37
2022-10-20T17:53:48.241Z,5.04
2022-10-20T17:56:20.451Z,5.16
2022-10-20T17:58:50.737Z,4.82
2022-10-20T18:01:21.691Z,4.83
2022-10-20T18:03:56.052Z,5.00
2022-10-20T18:06:31.213Z,5.21
2022-10-20T18:09:05.329Z,5.51
2022-10-20T18:11:36.992Z,5.46
2022-10-20T18:14:06.880Z,5.34
2022-10-20T18:16:38.260Z,5.27
2022-10-20T18:19:15.025Z,5.58
2022-10-20T18:21:44.717Z,5.73
2022-10-20T18:24:15.801Z,5.27
2022-10-20T18:26:46.909Z,5.44
2022-10-20T18:29:17.429Z,5.23
2022-10-20T18:31:48.665Z,4.95
2022-10-20T18:34:20.850Z,4.82
2022-10-20T18:36:52.216Z,4.66
2022-10-20T18:39:21.151Z,4.70
2022-10-20T18:41:51.995Z,4.94
2022-10-20T18:44:21.256Z,5.08
2022-10-20T18:46:51.273Z,5.06
2022-10-20T18:49:21.677Z,4.99
2022-10-20T18:51:50.624Z,5.18
2022-10-20T18:54:19.411Z,5.30
2022-10-20T18:56:48.304Z,5.41
2022-10-20T18:59:18.256Z,5.03
2022-10-20T19:01:48.482Z,5.27
2022-10-20T19:04:17.457Z,5.12
2022-10-20T19:06:46.551Z,4.93
2022-10-20T19:09:17.749Z,4.76
2022-10-20T19:11:47.524Z,5.12
2022-10-20T19:14:17.957Z,5.41
2022-10-20T19:16:47.829Z,5.12
2022-10-20T19:19:16.838Z,5.07
2022-10-20T19:21:45.241Z,4.73
2022-10-20T19:24:18.012Z,4.80
2022-10-20T19:27:02.228Z,4.66
2022-10-20T19:29:41.686Z,5.00
2022-10-20T19:32:11.550Z,5.30
2022-10-20T19:34:42.030Z,5.09
2022-10-20T19:37:11.090Z,5.09
2022-10-20T19:39:41.935Z,4.99
2022-10-20T19:42:11.162Z,4.79
2022-10-20T19:44:41.379Z,4.82
2022-10-20T19:47:10.008Z,4.69
2022-10-20T19:49:38.737Z,4.80
2022-10-20T19:52:07.190Z,5.26
2022-10-20T19:54:36.257Z,5.05
2022-10-20T19:57:06.383Z,5.01
2022-10-20T19:59:35.060Z,4.49
2022-10-20T20:02:05.005Z,4.45
2022-10-20T20:04:33.532Z,4.61
2022-10-20T20:07:02.653Z,4.52
2022-10-20T20:09:31.490Z,4.19
2022-10-20T20:11:59.972Z,4.46
2022-10-20T20:14:28.573Z,3.92
2022-10-20T20:16:57.193Z,3.99
2022-10-20T20:19:27.133Z,3.88
2022-10-20T20:21:55.858Z,4.29
2022-10-20T20:24:24.031Z,4.00
2022-10-20T20:26:55.756Z,4.05
2022-10-20T20:29:24.264Z,4.19
2022-10-20T20:31:52.669Z,4.15
2022-10-20T20:34:21.221Z,3.92
2022-10-20T20:36:51.053Z,3.95
2022-10-20T20:39:19.519Z,4.11
2022-10-20T20:41:48.243Z,4.49
2022-10-20T20:44:16.391Z,4.10
2022-10-20T20:46:44.912Z,4.47
2022-10-20T20:49:13.271Z,4.48
2022-10-20T20:51:41.625Z,4.61
2022-10-20T20:54:12.125Z,4.37
2022-10-20T20:56:40.698Z,4.20
2022-10-20T20:59:09.112Z,4.56
2022-10-20T21:01:37.685Z,4.58
2022-10-20T21:04:10.351Z,4.26
2022-10-20T21:07:00.770Z,4.22
2022-10-20T21:09:29.940Z,3.92
2022-10-20T21:12:02.151Z,3.93
2022-10-20T21:14:31.156Z,4.06
2022-10-20T21:16:59.653Z,4.20
2022-10-20T21:19:28.309Z,3.99
2022-10-20T21:21:58.565Z,4.00
2022-10-20T21:24:28.059Z,4.23
2022-10-20T21:26:57.976Z,4.10
2022-10-20T21:29:29.282Z,4.21
2022-10-20T21:31:58.519Z,4.49
2022-10-20T21:34:27.679Z,4.46
2022-10-20T21:36:56.096Z,4.45
2022-10-20T21:39:24.592Z,4.41
2022-10-20T21:41:53.084Z,4.64
2022-10-20T21:44:24.817Z,4.71
2022-10-20T21:46:53.304Z,4.55
2022-10-20T21:49:25.468Z,4.72
2022-10-20T21:51:56.106Z,4.72
2022-10-20T21:54:26.281Z,4.06
2022-10-20T21:56:55.632Z,4.41
2022-10-20T21:59:27.233Z,4.46
2022-10-20T22:01:57.879Z,4.27
2022-10-20T22:04:28.507Z,4.41
2022-10-20T22:06:59.511Z,4.46
2022-10-20T22:09:28.334Z,4.29
2022-10-20T22:11:58.900Z,4.16
2022-10-20T22:14:30.685Z,3.94
2022-10-20T22:16:59.377Z,4.11
2022-10-20T22:19:27.810Z,3.97
2022-10-20T22:24:31.372Z,4.19
2022-10-20T22:26:59.776Z,4.33
2022-10-20T22:29:29.984Z,4.69
2022-10-20T22:31:58.497Z,4.50
2022-10-20T22:34:26.926Z,5.01
2022-10-20T22:36:55.457Z,5.13
2022-10-20T22:39:23.860Z,5.07
2022-10-20T22:41:52.286Z,5.39
2022-10-20T22:44:20.892Z,5.14
2022-10-20T22:46:50.742Z,5.23
2022-10-20T22:49:19.184Z,5.48
2022-10-20T22:51:47.527Z,5.61
2022-10-20T22:54:15.957Z,5.53
2022-10-20T22:56:44.361Z,5.30
2022-10-20T22:59:12.810Z,5.36
2022-10-20T23:01:41.292Z,5.27
2022-10-20T23:04:11.131Z,4.98
2022-10-20T23:06:41.300Z,4.80
2022-10-20T23:09:10.760Z,4.96
2022-10-20T23:11:39.255Z,5.08
2022-10-20T23:14:07.616Z,5.17
2022-10-20T23:16:37.542Z,5.17
2022-10-20T23:19:08.529Z,5.27
2022-10-20T23:21:38.437Z,5.47
2022-10-20T23:24:07.631Z,5.33
2022-10-20T23:26:36.047Z,4.77
2022-10-20T23:29:04.637Z,4.44
2022-10-20T23:31:33.048Z,4.63
2022-10-20T23:34:01.451Z,4.19
2022-10-20T23:36:29.982Z,4.49
2022-10-20T23:38:59.914Z,4.38
2022-10-20T23:41:28.350Z,4.61
2022-10-20T23:43:56.779Z,4.60
2022-10-20T23:46:25.869Z,4.50
2022-10-20T23:48:54.284Z,4.60
2022-10-20T23:51:22.714Z,4.23
2022-10-20T23:53:51.160Z,4.31
2022-10-20T23:56:21.038Z,4.55
2022-10-20T23:58:49.452Z,4.22
